Aviation Digital Data Service (ADDS)

Output produced by METARs form (1537 UTC 27 May 2017)
found at http://aviationweather.gov/adds/metars/
 
KACY 271128Z 2712/2812 27004KT P6SM SCT050 
     FM271600 24006KT P6SM BKN050 
     FM271900 20006KT P6SM BKN050 
     FM280100 14006KT P6SM BKN050 
     FM280800 08004KT P6SM BKN050